sensor_id;sensor_type;location;lat;lon;timestamp;pressure;altitude;pressure_sealevel;temperature;humidity
11936;BME280;6027;48.576;9.180;2023-03-14T00:02:25;95391.00;;;9.19;100.00
11936;BME280;6027;48.576;9.180;2023-03-14T00:04:54;95382.66;;;9.22;100.00
11936;BME280;6027;48.576;9.180;2023-03-14T00:07:20;95348.06;;;9.30;100.00
11936;BME280;6027;48.576;9.180;2023-03-14T00:09:45;95334.13;;;9.23;100.00
11936;BME280;6027;48.576;9.180;2023-03-14T00:12:11;95312.72;;;9.31;100.00
11936;BME280;6027;48.576;9.180;2023-03-14T00:14:36;95281.22;;;9.37;100.00
11936;BME280;6027;48.576;9.180;2023-03-14T00:17:02;95297.00;;;9.43;100.00
11936;BME280;6027;48.576;9.180;2023-03-14T00:19:27;95289.66;;;9.45;100.00
11936;BME280;6027;48.576;9.180;2023-03-14T00:21:53;95280.28;;;9.49;100.00
11936;BME280;6027;48.576;9.180;2023-03-14T00:24:18;95285.59;;;9.49;100.00
11936;BME280;6027;48.576;9.180;2023-03-14T00:26:43;95258.50;;;9.60;100.00
11936;BME280;6027;48.576;9.180;2023-03-14T00:29:09;95273.63;;;9.72;100.00
11936;BME280;6027;48.576;9.180;2023-03-14T00:31:34;95272.06;;;9.64;100.00
11936;BME280;6027;48.576;9.180;2023-03-14T00:34:01;95281.59;;;9.65;100.00
11936;BME280;6027;48.576;9.180;2023-03-14T00:36:26;95278.91;;;9.72;100.00
11936;BME280;6027;48.576;9.180;2023-03-14T00:38:52;95283.59;;;9.69;100.00
11936;BME280;6027;48.576;9.180;2023-03-14T00:41:20;95277.69;;;9.74;100.00
11936;BME280;6027;48.576;9.180;2023-03-14T00:43:47;95277.97;;;9.84;100.00
11936;BME280;6027;48.576;9.180;2023-03-14T00:46:13;95299.66;;;9.68;100.00
11936;BME280;6027;48.576;9.180;2023-03-14T00:48:39;95298.75;;;9.56;100.00
11936;BME280;6027;48.576;9.180;2023-03-14T00:51:05;95295.41;;;9.42;100.00
11936;BME280;6027;48.576;9.180;2023-03-14T00:53:35;95288.94;;;9.31;100.00
11936;BME280;6027;48.576;9.180;2023-03-14T00:56:03;95290.19;;;9.29;100.00
11936;BME280;6027;48.576;9.180;2023-03-14T00:58:29;95307.09;;;9.21;100.00
11936;BME280;6027;48.576;9.180;2023-03-14T01:00:54;95300.03;;;9.15;100.00
11936;BME280;6027;48.576;9.180;2023-03-14T01:03:19;95303.28;;;9.11;100.00
11936;BME280;6027;48.576;9.180;2023-03-14T01:05:45;95306.34;;;9.08;100.00
11936;BME280;6027;48.576;9.180;2023-03-14T01:08:10;95301.88;;;9.08;100.00
11936;BME280;6027;48.576;9.180;2023-03-14T01:10:40;95296.44;;;9.03;100.00
11936;BME280;6027;48.576;9.180;2023-03-14T01:13:07;95300.47;;;9.06;100.00
11936;BME280;6027;48.576;9.180;2023-03-14T01:15:33;95294.00;;;9.02;100.00
11936;BME280;6027;48.576;9.180;2023-03-14T01:17:59;95291.38;;;9.02;100.00
11936;BME280;6027;48.576;9.180;2023-03-14T01:20:24;95282.25;;;8.97;100.00
11936;BME280;6027;48.576;9.180;2023-03-14T01:22:50;95263.19;;;8.95;100.00
11936;BME280;6027;48.576;9.180;2023-03-14T01:25:17;95253.44;;;8.96;100.00
11936;BME280;6027;48.576;9.180;2023-03-14T01:27:43;95265.22;;;8.93;100.00
11936;BME280;6027;48.576;9.180;2023-03-14T01:30:10;95263.38;;;8.94;100.00
11936;BME280;6027;48.576;9.180;2023-03-14T01:32:35;95264.41;;;8.93;100.00
11936;BME280;6027;48.576;9.180;2023-03-14T01:35:01;95268.06;;;8.92;100.00
11936;BME280;6027;48.576;9.180;2023-03-14T01:37:27;95262.38;;;8.88;100.00
11936;BME280;6027;48.576;9.180;2023-03-14T01:39:52;95256.16;;;8.83;100.00
11936;BME280;6027;48.576;9.180;2023-03-14T01:42:18;95249.41;;;8.87;100.00
11936;BME280;6027;48.576;9.180;2023-03-14T01:44:54;95246.56;;;8.88;100.00
11936;BME280;6027;48.576;9.180;2023-03-14T01:47:21;95242.91;;;8.89;100.00
11936;BME280;6027;48.576;9.180;2023-03-14T01:49:49;95233.56;;;8.87;100.00
11936;BME280;6027;48.576;9.180;2023-03-14T01:52:21;95223.81;;;8.87;100.00
11936;BME280;6027;48.576;9.180;2023-03-14T01:54:55;95216.94;;;8.86;100.00
11936;BME280;6027;48.576;9.180;2023-03-14T01:57:35;95207.56;;;8.90;100.00
11936;BME280;6027;48.576;9.180;2023-03-14T02:00:07;95211.22;;;8.89;100.00
11936;BME280;6027;48.576;9.180;2023-03-14T02:02:37;95215.91;;;8.87;100.00
11936;BME280;6027;48.576;9.180;2023-03-14T02:05:05;95217.91;;;8.92;100.00
11936;BME280;6027;48.576;9.180;2023-03-14T02:07:36;95220.16;;;8.88;100.00
11936;BME280;6027;48.576;9.180;2023-03-14T02:10:05;95218.72;;;8.92;100.00
11936;BME280;6027;48.576;9.180;2023-03-14T02:12:31;95219.31;;;8.94;100.00
11936;BME280;6027;48.576;9.180;2023-03-14T02:14:57;95209.00;;;8.86;100.00
11936;BME280;6027;48.576;9.180;2023-03-14T02:17:23;95229.47;;;8.97;100.00
11936;BME280;6027;48.576;9.180;2023-03-14T02:22:30;95205.91;;;8.96;100.00
11936;BME280;6027;48.576;9.180;2023-03-14T02:27:54;95187.66;;;8.94;100.00
11936;BME280;6027;48.576;9.180;2023-03-14T02:30:22;95185.81;;;8.95;100.00
11936;BME280;6027;48.576;9.180;2023-03-14T02:33:09;95174.88;;;8.91;100.00
11936;BME280;6027;48.576;9.180;2023-03-14T02:35:49;95183.59;;;8.92;100.00
11936;BME280;6027;48.576;9.180;2023-03-14T02:38:26;95196.00;;;8.91;100.00
11936;BME280;6027;48.576;9.180;2023-03-14T02:40:53;95185.66;;;8.90;100.00
11936;BME280;6027;48.576;9.180;2023-03-14T02:43:19;95176.72;;;8.91;100.00
11936;BME280;6027;48.576;9.180;2023-03-14T02:45:47;95170.59;;;8.97;100.00
11936;BME280;6027;48.576;9.180;2023-03-14T02:48:16;95168.59;;;8.92;100.00
11936;BME280;6027;48.576;9.180;2023-03-14T02:50:45;95160.41;;;9.00;100.00
11936;BME280;6027;48.576;9.180;2023-03-14T02:53:15;95155.78;;;8.96;100.00
11936;BME280;6027;48.576;9.180;2023-03-14T02:55:45;95149.50;;;8.90;100.00
11936;BME280;6027;48.576;9.180;2023-03-14T02:58:11;95141.81;;;8.89;100.00
11936;BME280;6027;48.576;9.180;2023-03-14T03:03:04;95147.38;;;8.81;100.00
11936;BME280;6027;48.576;9.180;2023-03-14T03:05:32;95162.19;;;8.82;100.00
11936;BME280;6027;48.576;9.180;2023-03-14T03:07:58;95154.84;;;8.84;100.00
11936;BME280;6027;48.576;9.180;2023-03-14T03:10:23;95153.84;;;8.85;100.00
11936;BME280;6027;48.576;9.180;2023-03-14T03:12:49;95138.63;;;8.80;100.00
11936;BME280;6027;48.576;9.180;2023-03-14T03:15:14;95115.53;;;8.76;100.00
11936;BME280;6027;48.576;9.180;2023-03-14T03:17:40;95126.06;;;8.76;100.00
11936;BME280;6027;48.576;9.180;2023-03-14T03:20:06;95130.94;;;8.79;100.00
11936;BME280;6027;48.576;9.180;2023-03-14T03:22:35;95127.00;;;8.88;100.00
11936;BME280;6027;48.576;9.180;2023-03-14T03:25:01;95133.28;;;8.87;100.00
11936;BME280;6027;48.576;9.180;2023-03-14T03:27:30;95115.31;;;8.77;100.00
11936;BME280;6027;48.576;9.180;2023-03-14T03:29:55;95106.00;;;8.75;100.00
11936;BME280;6027;48.576;9.180;2023-03-14T03:32:21;95110.25;;;8.76;100.00
11936;BME280;6027;48.576;9.180;2023-03-14T03:34:46;95106.63;;;8.70;100.00
11936;BME280;6027;48.576;9.180;2023-03-14T03:37:11;95103.84;;;8.65;100.00
11936;BME280;6027;48.576;9.180;2023-03-14T03:39:37;95091.41;;;8.72;100.00
11936;BME280;6027;48.576;9.180;2023-03-14T03:42:02;95092.63;;;8.70;100.00
11936;BME280;6027;48.576;9.180;2023-03-14T03:44:28;95094.09;;;8.65;100.00
11936;BME280;6027;48.576;9.180;2023-03-14T03:46:53;95084.78;;;8.63;100.00
11936;BME280;6027;48.576;9.180;2023-03-14T03:49:18;95089.03;;;8.64;100.00
11936;BME280;6027;48.576;9.180;2023-03-14T03:51:44;95079.13;;;8.59;100.00
11936;BME280;6027;48.576;9.180;2023-03-14T03:54:09;95074.69;;;8.53;100.00
11936;BME280;6027;48.576;9.180;2023-03-14T03:56:35;95065.13;;;8.59;100.00
11936;BME280;6027;48.576;9.180;2023-03-14T03:59:00;95081.13;;;8.64;100.00
11936;BME280;6027;48.576;9.180;2023-03-14T04:01:26;95080.34;;;8.57;100.00
11936;BME280;6027;48.576;9.180;2023-03-14T04:03:51;95085.22;;;8.53;100.00
11936;BME280;6027;48.576;9.180;2023-03-14T04:06:17;95072.25;;;8.52;100.00
11936;BME280;6027;48.576;9.180;2023-03-14T04:08:42;95076.72;;;8.51;100.00
11936;BME280;6027;48.576;9.180;2023-03-14T04:11:08;95073.13;;;8.46;100.00
11936;BME280;6027;48.576;9.180;2023-03-14T04:13:34;95083.19;;;8.55;100.00
11936;BME280;6027;48.576;9.180;2023-03-14T04:15:59;95088.50;;;8.49;100.00
11936;BME280;6027;48.576;9.180;2023-03-14T04:18:25;95081.59;;;8.48;100.00
11936;BME280;6027;48.576;9.180;2023-03-14T04:20:55;95078.03;;;8.42;100.00
11936;BME280;6027;48.576;9.180;2023-03-14T04:23:22;95091.41;;;8.41;100.00
11936;BME280;6027;48.576;9.180;2023-03-14T04:25:52;95085.94;;;8.42;100.00
11936;BME280;6027;48.576;9.180;2023-03-14T04:28:18;95080.88;;;8.41;100.00
11936;BME280;6027;48.576;9.180;2023-03-14T04:30:44;95073.16;;;8.39;100.00
11936;BME280;6027;48.576;9.180;2023-03-14T04:33:09;95075.03;;;8.32;100.00
11936;BME280;6027;48.576;9.180;2023-03-14T04:35:36;95054.91;;;8.31;100.00
11936;BME280;6027;48.576;9.180;2023-03-14T04:38:01;95057.56;;;8.31;100.00
11936;BME280;6027;48.576;9.180;2023-03-14T04:40:28;95052.69;;;8.35;100.00
11936;BME280;6027;48.576;9.180;2023-03-14T04:42:53;95039.91;;;8.31;100.00
11936;BME280;6027;48.576;9.180;2023-03-14T04:45:18;95036.66;;;8.36;100.00
11936;BME280;6027;48.576;9.180;2023-03-14T04:47:44;95028.56;;;8.38;100.00
11936;BME280;6027;48.576;9.180;2023-03-14T04:50:10;95033.03;;;8.30;100.00
11936;BME280;6027;48.576;9.180;2023-03-14T04:52:35;95021.88;;;8.28;100.00
11936;BME280;6027;48.576;9.180;2023-03-14T04:55:01;95022.91;;;8.27;100.00
11936;BME280;6027;48.576;9.180;2023-03-14T04:57:26;95017.19;;;8.30;100.00
11936;BME280;6027;48.576;9.180;2023-03-14T04:59:52;95010.31;;;8.29;100.00
11936;BME280;6027;48.576;9.180;2023-03-14T05:02:17;95007.88;;;8.35;100.00
11936;BME280;6027;48.576;9.180;2023-03-14T05:04:43;95006.31;;;8.27;100.00
11936;BME280;6027;48.576;9.180;2023-03-14T05:07:08;94997.94;;;8.30;100.00
11936;BME280;6027;48.576;9.180;2023-03-14T05:09:33;95001.59;;;8.29;100.00
11936;BME280;6027;48.576;9.180;2023-03-14T05:11:59;94992.06;;;8.35;100.00
11936;BME280;6027;48.576;9.180;2023-03-14T05:14:24;94987.59;;;8.35;100.00
11936;BME280;6027;48.576;9.180;2023-03-14T05:16:50;94985.38;;;8.32;100.00
11936;BME280;6027;48.576;9.180;2023-03-14T05:19:15;94982.31;;;8.35;100.00
11936;BME280;6027;48.576;9.180;2023-03-14T05:21:41;94981.91;;;8.38;100.00
11936;BME280;6027;48.576;9.180;2023-03-14T05:24:06;94974.00;;;8.38;100.00
11936;BME280;6027;48.576;9.180;2023-03-14T05:26:32;94972.38;;;8.30;100.00
11936;BME280;6027;48.576;9.180;2023-03-14T05:28:57;94965.91;;;8.33;100.00
11936;BME280;6027;48.576;9.180;2023-03-14T05:31:23;94970.97;;;8.35;100.00
11936;BME280;6027;48.576;9.180;2023-03-14T05:33:48;94966.94;;;8.32;100.00
11936;BME280;6027;48.576;9.180;2023-03-14T05:36:13;94963.06;;;8.28;100.00
11936;BME280;6027;48.576;9.180;2023-03-14T05:38:39;94946.03;;;8.30;100.00
11936;BME280;6027;48.576;9.180;2023-03-14T05:41:04;94955.09;;;8.41;100.00
11936;BME280;6027;48.576;9.180;2023-03-14T05:43:30;94953.06;;;8.43;100.00
11936;BME280;6027;48.576;9.180;2023-03-14T05:45:55;94950.47;;;8.37;100.00
11936;BME280;6027;48.576;9.180;2023-03-14T05:48:21;94934.88;;;8.35;100.00
11936;BME280;6027;48.576;9.180;2023-03-14T05:50:47;94947.44;;;8.33;100.00
11936;BME280;6027;48.576;9.180;2023-03-14T05:53:13;94919.25;;;8.34;100.00
11936;BME280;6027;48.576;9.180;2023-03-14T05:55:39;94931.16;;;8.43;100.00
11936;BME280;6027;48.576;9.180;2023-03-14T05:58:05;94931.59;;;8.40;100.00
11936;BME280;6027;48.576;9.180;2023-03-14T06:00:30;94925.88;;;8.43;100.00
11936;BME280;6027;48.576;9.180;2023-03-14T06:02:56;94926.75;;;8.37;100.00
11936;BME280;6027;48.576;9.180;2023-03-14T06:05:21;94905.66;;;8.30;100.00
11936;BME280;6027;48.576;9.180;2023-03-14T06:07:46;94923.84;;;8.45;100.00
11936;BME280;6027;48.576;9.180;2023-03-14T06:10:12;94931.09;;;8.49;100.00
11936;BME280;6027;48.576;9.180;2023-03-14T06:12:38;94938.34;;;8.54;100.00
11936;BME280;6027;48.576;9.180;2023-03-14T06:15:03;94937.38;;;8.48;100.00
11936;BME280;6027;48.576;9.180;2023-03-14T06:17:29;94945.97;;;8.44;100.00
11936;BME280;6027;48.576;9.180;2023-03-14T06:19:54;94945.28;;;8.48;100.00
11936;BME280;6027;48.576;9.180;2023-03-14T06:22:20;94946.78;;;8.44;100.00
11936;BME280;6027;48.576;9.180;2023-03-14T06:24:45;94944.34;;;8.43;100.00
11936;BME280;6027;48.576;9.180;2023-03-14T06:27:11;94942.31;;;8.45;100.00
11936;BME280;6027;48.576;9.180;2023-03-14T06:29:36;94941.63;;;8.49;100.00
11936;BME280;6027;48.576;9.180;2023-03-14T06:32:02;94940.63;;;8.50;100.00
11936;BME280;6027;48.576;9.180;2023-03-14T06:34:28;94940.00;;;8.48;100.00
11936;BME280;6027;48.576;9.180;2023-03-14T06:39:21;94950.00;;;8.46;100.00
11936;BME280;6027;48.576;9.180;2023-03-14T06:41:46;94946.78;;;8.44;100.00
11936;BME280;6027;48.576;9.180;2023-03-14T06:44:12;94931.97;;;8.43;100.00
11936;BME280;6027;48.576;9.180;2023-03-14T06:46:37;94939.06;;;8.43;100.00
11936;BME280;6027;48.576;9.180;2023-03-14T06:49:02;94944.06;;;8.51;100.00
11936;BME280;6027;48.576;9.180;2023-03-14T06:51:28;94938.94;;;8.56;100.00
11936;BME280;6027;48.576;9.180;2023-03-14T06:53:53;94937.34;;;8.55;100.00
11936;BME280;6027;48.576;9.180;2023-03-14T06:56:19;94943.84;;;8.52;100.00
11936;BME280;6027;48.576;9.180;2023-03-14T06:58:44;94951.06;;;8.63;100.00
11936;BME280;6027;48.576;9.180;2023-03-14T07:01:29;94958.16;;;8.63;100.00
11936;BME280;6027;48.576;9.180;2023-03-14T07:03:55;94962.56;;;8.69;100.00
11936;BME280;6027;48.576;9.180;2023-03-14T07:06:21;94959.69;;;8.71;100.00
11936;BME280;6027;48.576;9.180;2023-03-14T07:08:47;94956.03;;;8.72;100.00
11936;BME280;6027;48.576;9.180;2023-03-14T07:11:12;94960.69;;;8.76;100.00
11936;BME280;6027;48.576;9.180;2023-03-14T07:13:38;94971.97;;;8.83;100.00
11936;BME280;6027;48.576;9.180;2023-03-14T07:16:05;94974.53;;;8.90;100.00
11936;BME280;6027;48.576;9.180;2023-03-14T07:18:31;94978.56;;;8.92;100.00
11936;BME280;6027;48.576;9.180;2023-03-14T07:20:56;94987.63;;;9.03;100.00
11936;BME280;6027;48.576;9.180;2023-03-14T07:23:22;94985.41;;;9.00;100.00
11936;BME280;6027;48.576;9.180;2023-03-14T07:25:47;94974.66;;;9.02;100.00
11936;BME280;6027;48.576;9.180;2023-03-14T07:28:13;94984.97;;;9.03;100.00
11936;BME280;6027;48.576;9.180;2023-03-14T07:30:38;94986.06;;;9.14;100.00
11936;BME280;6027;48.576;9.180;2023-03-14T07:33:03;94984.09;;;9.09;100.00
11936;BME280;6027;48.576;9.180;2023-03-14T07:35:29;94995.81;;;9.13;100.00
11936;BME280;6027;48.576;9.180;2023-03-14T07:37:54;94995.56;;;9.21;100.00
11936;BME280;6027;48.576;9.180;2023-03-14T07:40:21;94997.06;;;9.29;100.00
11936;BME280;6027;48.576;9.180;2023-03-14T07:42:46;94999.28;;;9.32;100.00
11936;BME280;6027;48.576;9.180;2023-03-14T07:45:12;95009.63;;;9.33;100.00
11936;BME280;6027;48.576;9.180;2023-03-14T07:47:37;95007.22;;;9.32;100.00
11936;BME280;6027;48.576;9.180;2023-03-14T07:50:04;95004.19;;;9.47;100.00
11936;BME280;6027;48.576;9.180;2023-03-14T07:52:30;95012.47;;;9.50;100.00
11936;BME280;6027;48.576;9.180;2023-03-14T07:54:55;95006.69;;;9.60;100.00
11936;BME280;6027;48.576;9.180;2023-03-14T07:57:21;95010.25;;;9.65;100.00
11936;BME280;6027;48.576;9.180;2023-03-14T07:59:46;95011.38;;;9.76;100.00
11936;BME280;6027;48.576;9.180;2023-03-14T08:02:12;95016.47;;;9.89;100.00
11936;BME280;6027;48.576;9.180;2023-03-14T08:04:39;95018.09;;;9.90;100.00
11936;BME280;6027;48.576;9.180;2023-03-14T08:07:05;95013.03;;;9.89;100.00
11936;BME280;6027;48.576;9.180;2023-03-14T08:09:31;95013.19;;;9.94;100.00
11936;BME280;6027;48.576;9.180;2023-03-14T08:11:57;95017.91;;;10.03;100.00
11936;BME280;6027;48.576;9.180;2023-03-14T08:14:22;95017.03;;;10.10;100.00
11936;BME280;6027;48.576;9.180;2023-03-14T08:16:49;95023.19;;;10.03;100.00
11936;BME280;6027;48.576;9.180;2023-03-14T08:19:15;95002.84;;;10.04;100.00
11936;BME280;6027;48.576;9.180;2023-03-14T08:21:41;95009.31;;;10.08;96.38
11936;BME280;6027;48.576;9.180;2023-03-14T08:24:06;95009.81;;;10.17;100.00
11936;BME280;6027;48.576;9.180;2023-03-14T08:26:32;95018.41;;;10.12;99.43
11936;BME280;6027;48.576;9.180;2023-03-14T08:28:57;95014.16;;;10.11;100.00
11936;BME280;6027;48.576;9.180;2023-03-14T08:31:23;95006.16;;;10.18;100.00
11936;BME280;6027;48.576;9.180;2023-03-14T08:33:48;95013.78;;;10.26;100.00
11936;BME280;6027;48.576;9.180;2023-03-14T08:36:14;95006.09;;;10.36;100.00
11936;BME280;6027;48.576;9.180;2023-03-14T08:38:39;95023.69;;;10.42;97.23
11936;BME280;6027;48.576;9.180;2023-03-14T08:41:08;95006.25;;;10.53;95.36
11936;BME280;6027;48.576;9.180;2023-03-14T08:43:33;95018.22;;;10.55;95.91
11936;BME280;6027;48.576;9.180;2023-03-14T08:46:00;95023.84;;;10.59;98.98
11936;BME280;6027;48.576;9.180;2023-03-14T08:48:26;95023.75;;;10.65;100.00
11936;BME280;6027;48.576;9.180;2023-03-14T08:50:52;95027.22;;;10.66;97.54
11936;BME280;6027;48.576;9.180;2023-03-14T08:53:17;95020.44;;;10.70;96.37
11936;BME280;6027;48.576;9.180;2023-03-14T08:55:43;95030.69;;;10.90;96.40
11936;BME280;6027;48.576;9.180;2023-03-14T08:58:09;95021.13;;;11.00;93.86
11936;BME280;6027;48.576;9.180;2023-03-14T09:00:34;95021.63;;;11.09;89.89
11936;BME280;6027;48.576;9.180;2023-03-14T09:03:00;95020.22;;;11.30;91.57
11936;BME280;6027;48.576;9.180;2023-03-14T09:05:25;95021.13;;;11.35;90.20
11936;BME280;6027;48.576;9.180;2023-03-14T09:07:51;95020.44;;;11.40;92.29
11936;BME280;6027;48.576;9.180;2023-03-14T09:10:16;95028.16;;;11.41;93.52
11936;BME280;6027;48.576;9.180;2023-03-14T09:12:42;95032.91;;;11.28;93.77
11936;BME280;6027;48.576;9.180;2023-03-14T09:15:08;95034.72;;;11.04;96.51
11936;BME280;6027;48.576;9.180;2023-03-14T09:17:33;95030.94;;;10.88;94.50
11936;BME280;6027;48.576;9.180;2023-03-14T09:19:59;95033.09;;;10.80;94.44
11936;BME280;6027;48.576;9.180;2023-03-14T09:22:24;95045.28;;;10.81;96.23
11936;BME280;6027;48.576;9.180;2023-03-14T09:24:50;95038.97;;;10.70;98.38
11936;BME280;6027;48.576;9.180;2023-03-14T09:27:15;95045.88;;;10.71;99.81
11936;BME280;6027;48.576;9.180;2023-03-14T09:29:41;95048.97;;;10.68;97.65
11936;BME280;6027;48.576;9.180;2023-03-14T09:32:06;95054.91;;;10.52;100.00
11936;BME280;6027;48.576;9.180;2023-03-14T09:34:32;95063.72;;;10.34;100.00
11936;BME280;6027;48.576;9.180;2023-03-14T09:36:57;95067.84;;;10.12;100.00
11936;BME280;6027;48.576;9.180;2023-03-14T09:39:23;95072.41;;;10.04;100.00
11936;BME280;6027;48.576;9.180;2023-03-14T09:41:51;95078.81;;;9.97;100.00
11936;BME280;6027;48.576;9.180;2023-03-14T09:44:28;95083.66;;;9.82;100.00
11936;BME280;6027;48.576;9.180;2023-03-14T09:46:57;95080.22;;;9.81;100.00
11936;BME280;6027;48.576;9.180;2023-03-14T09:49:28;95085.94;;;9.78;100.00
11936;BME280;6027;48.576;9.180;2023-03-14T09:51:56;95085.44;;;9.69;100.00
11936;BME280;6027;48.576;9.180;2023-03-14T09:54:49;95090.72;;;9.69;100.00
11936;BME280;6027;48.576;9.180;2023-03-14T09:57:17;95074.47;;;9.66;100.00
11936;BME280;6027;48.576;9.180;2023-03-14T09:59:45;95088.38;;;9.61;100.00
11936;BME280;6027;48.576;9.180;2023-03-14T10:02:22;95086.88;;;9.65;100.00
11936;BME280;6027;48.576;9.180;2023-03-14T10:04:50;95091.53;;;9.70;100.00
11936;BME280;6027;48.576;9.180;2023-03-14T10:07:27;95084.56;;;9.76;100.00
11936;BME280;6027;48.576;9.180;2023-03-14T10:12:31;95084.25;;;9.84;100.00
11936;BME280;6027;48.576;9.180;2023-03-14T10:15:03;95091.00;;;9.98;100.00
11936;BME280;6027;48.576;9.180;2023-03-14T10:17:29;95080.88;;;9.95;100.00
11936;BME280;6027;48.576;9.180;2023-03-14T10:19:59;95081.25;;;9.98;100.00
11936;BME280;6027;48.576;9.180;2023-03-14T10:22:34;95073.34;;;10.10;100.00
11936;BME280;6027;48.576;9.180;2023-03-14T10:25:02;95068.34;;;10.20;100.00
11936;BME280;6027;48.576;9.180;2023-03-14T10:27:33;95073.19;;;10.23;100.00
11936;BME280;6027;48.576;9.180;2023-03-14T10:30:05;95065.63;;;10.27;100.00
11936;BME280;6027;48.576;9.180;2023-03-14T10:32:34;95061.28;;;10.32;100.00
11936;BME280;6027;48.576;9.180;2023-03-14T10:37:32;95057.63;;;10.33;100.00
11936;BME280;6027;48.576;9.180;2023-03-14T10:40:00;95053.59;;;10.43;100.00
11936;BME280;6027;48.576;9.180;2023-03-14T10:42:32;95060.97;;;10.41;100.00
11936;BME280;6027;48.576;9.180;2023-03-14T10:47:50;95058.25;;;10.59;100.00
11936;BME280;6027;48.576;9.180;2023-03-14T10:52:49;95057.63;;;10.75;99.08
11936;BME280;6027;48.576;9.180;2023-03-14T10:55:16;95065.56;;;10.87;96.16
11936;BME280;6027;48.576;9.180;2023-03-14T10:57:42;95060.72;;;10.84;96.04
11936;BME280;6027;48.576;9.180;2023-03-14T11:00:18;95068.44;;;10.85;97.50
11936;BME280;6027;48.576;9.180;2023-03-14T11:03:03;95068.53;;;10.79;100.00
11936;BME280;6027;48.576;9.180;2023-03-14T11:05:35;95082.69;;;10.72;100.00
11936;BME280;6027;48.576;9.180;2023-03-14T11:08:22;95080.50;;;10.69;100.00
11936;BME280;6027;48.576;9.180;2023-03-14T11:10:54;95083.72;;;10.71;100.00
11936;BME280;6027;48.576;9.180;2023-03-14T11:13:26;95090.81;;;10.59;100.00
11936;BME280;6027;48.576;9.180;2023-03-14T11:18:53;95102.94;;;10.37;100.00
11936;BME280;6027;48.576;9.180;2023-03-14T11:29:28;95113.16;;;10.15;100.00
11936;BME280;6027;48.576;9.180;2023-03-14T11:31:59;95106.19;;;10.21;100.00
11936;BME280;6027;48.576;9.180;2023-03-14T11:35:08;95121.50;;;10.19;100.00
11936;BME280;6027;48.576;9.180;2023-03-14T11:37:29;95135.25;;;10.02;100.00
11936;BME280;6027;48.576;9.180;2023-03-14T11:42:43;95125.22;;;9.75;100.00
11936;BME280;6027;48.576;9.180;2023-03-14T11:45:44;95125.38;;;9.61;100.00
11936;BME280;6027;48.576;9.180;2023-03-14T11:48:36;95131.69;;;9.60;100.00
11936;BME280;6027;48.576;9.180;2023-03-14T11:51:08;95129.03;;;9.60;100.00
11936;BME280;6027;48.576;9.180;2023-03-14T11:54:18;95142.97;;;9.67;100.00
11936;BME280;6027;48.576;9.180;2023-03-14T11:59:19;95144.16;;;9.72;100.00
11936;BME280;6027;48.576;9.180;2023-03-14T12:02:03;95144.38;;;9.70;100.00
11936;BME280;6027;48.576;9.180;2023-03-14T12:07:13;95157.56;;;9.70;100.00
11936;BME280;6027;48.576;9.180;2023-03-14T12:09:41;95165.56;;;9.63;100.00
11936;BME280;6027;48.576;9.180;2023-03-14T12:12:13;95172.31;;;9.59;100.00
11936;BME280;6027;48.576;9.180;2023-03-14T12:17:25;95190.06;;;9.52;100.00
11936;BME280;6027;48.576;9.180;2023-03-14T12:20:15;95193.25;;;9.36;100.00
11936;BME280;6027;48.576;9.180;2023-03-14T12:22:56;95202.09;;;9.23;100.00
11936;BME280;6027;48.576;9.180;2023-03-14T12:25:28;95202.56;;;9.14;100.00
11936;BME280;6027;48.576;9.180;2023-03-14T12:35:51;95226.19;;;9.02;100.00
11936;BME280;6027;48.576;9.180;2023-03-14T12:41:19;95251.59;;;9.28;100.00
11936;BME280;6027;48.576;9.180;2023-03-14T12:43:46;95261.22;;;9.47;100.00
11936;BME280;6027;48.576;9.180;2023-03-14T12:48:46;95273.75;;;9.58;100.00
11936;BME280;6027;48.576;9.180;2023-03-14T12:51:14;95282.06;;;9.62;100.00
11936;BME280;6027;48.576;9.180;2023-03-14T12:56:25;95291.50;;;9.76;100.00
11936;BME280;6027;48.576;9.180;2023-03-14T13:01:46;95311.22;;;9.98;91.48
11936;BME280;6027;48.576;9.180;2023-03-14T13:04:13;95320.94;;;10.29;97.79
11936;BME280;6027;48.576;9.180;2023-03-14T13:06:56;95345.50;;;10.36;76.54
11936;BME280;6027;48.576;9.180;2023-03-14T13:11:56;95334.66;;;9.95;76.14
11936;BME280;6027;48.576;9.180;2023-03-14T13:14:28;95361.28;;;9.93;75.45
11936;BME280;6027;48.576;9.180;2023-03-14T13:16:53;95369.41;;;9.98;71.98
11936;BME280;6027;48.576;9.180;2023-03-14T13:19:22;95378.50;;;9.78;68.47
11936;BME280;6027;48.576;9.180;2023-03-14T13:21:50;95395.59;;;9.37;67.40
11936;BME280;6027;48.576;9.180;2023-03-14T13:24:23;95417.63;;;9.11;66.20
11936;BME280;6027;48.576;9.180;2023-03-14T13:26:49;95435.75;;;9.01;69.21
11936;BME280;6027;48.576;9.180;2023-03-14T13:29:19;95455.88;;;8.82;69.51
11936;BME280;6027;48.576;9.180;2023-03-14T13:31:46;95455.28;;;8.80;69.50
11936;BME280;6027;48.576;9.180;2023-03-14T13:34:12;95473.50;;;8.95;69.84
11936;BME280;6027;48.576;9.180;2023-03-14T13:36:38;95468.47;;;8.80;65.43
11936;BME280;6027;48.576;9.180;2023-03-14T13:39:18;95482.88;;;8.71;65.25
11936;BME280;6027;48.576;9.180;2023-03-14T13:46:47;95508.88;;;8.41;65.51
11936;BME280;6027;48.576;9.180;2023-03-14T13:49:21;95522.66;;;8.37;66.05
11936;BME280;6027;48.576;9.180;2023-03-14T13:51:48;95526.03;;;8.17;65.33
11936;BME280;6027;48.576;9.180;2023-03-14T13:54:15;95529.47;;;8.11;65.47
11936;BME280;6027;48.576;9.180;2023-03-14T13:56:40;95553.38;;;8.03;66.87
11936;BME280;6027;48.576;9.180;2023-03-14T13:59:22;95548.09;;;7.96;67.00
11936;BME280;6027;48.576;9.180;2023-03-14T14:01:48;95564.47;;;7.92;66.90
11936;BME280;6027;48.576;9.180;2023-03-14T14:04:16;95554.31;;;7.89;69.73
11936;BME280;6027;48.576;9.180;2023-03-14T14:07:08;95562.25;;;7.95;67.28
11936;BME280;6027;48.576;9.180;2023-03-14T14:09:42;95578.09;;;8.02;69.02
11936;BME280;6027;48.576;9.180;2023-03-14T14:12:18;95574.84;;;8.00;67.50
11936;BME280;6027;48.576;9.180;2023-03-14T14:17:36;95593.25;;;7.87;65.04
11936;BME280;6027;48.576;9.180;2023-03-14T14:20:05;95595.28;;;7.91;67.05
11936;BME280;6027;48.576;9.180;2023-03-14T14:22:32;95604.63;;;7.94;67.33
11936;BME280;6027;48.576;9.180;2023-03-14T14:24:59;95607.47;;;7.92;66.60
11936;BME280;6027;48.576;9.180;2023-03-14T14:27:37;95629.59;;;7.98;67.79